Erdogan Senkaya — TCAB3 — position and weather

sailwx.info

Track history (hours):
 
Tides and Currents Weather Stations Pressure Air Temp Water Temp Dewpoint Dewpoint Depression Visibility Wind Speed Wind Dir Waves Ship Positions

Erdogan Senkaya

Last reported at 2017-Sep-16 21:12 UTC. Time now 2017-Sep-24 10:40 UTC.
Position N 38°45' E 009°17'.

Length 67 m; draft 3.2 m.

Type: Cargo ship. MMSI: 271002242.

Date/timePositionNaut miles runAvg speedWind from/ knotsBaromVisibWave heightAir tempDewpointWater temp
2017-Sep-16 21:12N 38°45' E 009°17'66 9.3
2017-Sep-16 14:06N 39°15' E 010°33'72 7.8
2017-Sep-16 04:55N 39°50' E 011°54'116 9.2
2017-Sep-15 16:19N 40°44' E 014°08'4 9.6
2017-Sep-15 15:52N 40°47' E 014°13'6 0.3
2017-Sep-14 21:08N 40°41' E 014°13'111.0
2017-Sep-14 21:00N 40°40' E 014°13'611.0
2017-Sep-14 20:29N 40°34' E 014°10'11510.3
2017-Sep-14 09:23N 38°54' E 015°22'1410.2
2017-Sep-14 08:02N 38°42' E 015°31'110.1
2017-Sep-14 07:59N 38°41' E 015°31'610.3
2017-Sep-14 07:22N 38°36' E 015°35'410.8
2017-Sep-14 06:59N 38°32' E 015°38'510.8
2017-Sep-14 06:30N 38°27' E 015°39'510.3
2017-Sep-14 06:01N 38°22' E 015°41'510.1
2017-Sep-14 05:31N 38°17' E 015°42'4 8.2
2017-Sep-14 05:01N 38°14' E 015°38'4 8.2
2017-Sep-14 04:30N 38°10' E 015°37'4 7.4
2017-Sep-14 04:00N 38°07' E 015°36'4 8.9
2017-Sep-14 03:31N 38°02' E 015°35'8710.2
2017-Sep-13 18:59N 36°38' E 015°12'711.0
2017-Sep-13 18:21N 36°37' E 015°03'411.5
2017-Sep-13 18:00N 36°38' E 014°58'611.4
2017-Sep-13 17:31N 36°40' E 014°52'3 3.5
2017-Sep-13 16:35N 36°43' E 014°50'0 0.1
2017-Sep-13 16:29N 36°43' E 014°50'0 0.0
2017-Sep-13 15:59N 36°43' E 014°50'0 0.0
2017-Sep-13 07:16N 36°43' E 014°50'0 0.0
2017-Sep-13 06:52N 36°43' E 014°50'0 0.1
2017-Sep-13 06:28N 36°43' E 014°50'0 0.1
2017-Sep-13 05:48N 36°43' E 014°50'0 0.0
2017-Sep-13 05:30N 36°43' E 014°50'0 0.0
2017-Sep-13 05:00N 36°43' E 014°50'0 0.0
2017-Sep-13 04:21N 36°43' E 014°50'0 0.0
2017-Sep-13 03:54N 36°43' E 014°50'0 0.0
2017-Sep-12 23:09N 36°43' E 014°50'2 0.0
2017-Sep-10 23:45N 36°41' E 014°52'0 0.0
2017-Sep-10 23:30N 36°41' E 014°52'0 0.0
2017-Sep-10 23:00N 36°41' E 014°52'0 0.0
2017-Sep-10 22:30N 36°41' E 014°52'0 0.0
2017-Sep-10 21:57N 36°41' E 014°52'0 0.0
2017-Sep-10 21:30N 36°41' E 014°52'0 0.0
2017-Sep-10 21:00N 36°41' E 014°52'0 0.0
2017-Sep-10 20:27N 36°41' E 014°52'0 0.0
2017-Sep-10 20:00N 36°41' E 014°52'0 0.1
2017-Sep-10 19:30N 36°41' E 014°52'0 0.0
2017-Sep-10 19:00N 36°41' E 014°52'0 0.0
2017-Sep-10 18:30N 36°41' E 014°52'0 0.0
2017-Sep-10 18:00N 36°41' E 014°52'0 0.0
2017-Sep-10 17:30N 36°41' E 014°52'0 0.0
2017-Sep-10 16:57N 36°41' E 014°52'0 0.0
2017-Sep-10 16:30N 36°41' E 014°52'0 0.0
2017-Sep-10 15:36N 36°41' E 014°52'  
Track history (hours):
 
Tides and Currents Weather Stations Pressure Air Temp Water Temp Dewpoint Dewpoint Depression Visibility Wind Speed Wind Dir Waves Ship Positions

Erdogan Senkaya

Last reported at 2017-Sep-16 21:12 UTC. Time now 2017-Sep-24 10:40 UTC.
Position N 38°45' E 009°17'.

Length 67 m; draft 3.2 m.

Type: Cargo ship. MMSI: 271002242.

Date/timePositionNaut miles runAvg speedWind from/ knotsBaromVisibWave heightAir tempDewpointWater temp
2017-Sep-16 21:12N 38°45' E 009°17'66 9.3
2017-Sep-16 14:06N 39°15' E 010°33'72 7.8
2017-Sep-16 04:55N 39°50' E 011°54'116 9.2
2017-Sep-15 16:19N 40°44' E 014°08'4 9.6
2017-Sep-15 15:52N 40°47' E 014°13'6 0.3
2017-Sep-14 21:08N 40°41' E 014°13'111.0
2017-Sep-14 21:00N 40°40' E 014°13'611.0
2017-Sep-14 20:29N 40°34' E 014°10'11510.3
2017-Sep-14 09:23N 38°54' E 015°22'1410.2
2017-Sep-14 08:02N 38°42' E 015°31'110.1
2017-Sep-14 07:59N 38°41' E 015°31'610.3
2017-Sep-14 07:22N 38°36' E 015°35'410.8
2017-Sep-14 06:59N 38°32' E 015°38'510.8
2017-Sep-14 06:30N 38°27' E 015°39'510.3
2017-Sep-14 06:01N 38°22' E 015°41'510.1
2017-Sep-14 05:31N 38°17' E 015°42'4 8.2
2017-Sep-14 05:01N 38°14' E 015°38'4 8.2
2017-Sep-14 04:30N 38°10' E 015°37'4 7.4
2017-Sep-14 04:00N 38°07' E 015°36'4 8.9
2017-Sep-14 03:31N 38°02' E 015°35'8710.2
2017-Sep-13 18:59N 36°38' E 015°12'711.0
2017-Sep-13 18:21N 36°37' E 015°03'411.5
2017-Sep-13 18:00N 36°38' E 014°58'611.4
2017-Sep-13 17:31N 36°40' E 014°52'3 3.5
2017-Sep-13 16:35N 36°43' E 014°50'0 0.1
2017-Sep-13 16:29N 36°43' E 014°50'0 0.0
2017-Sep-13 15:59N 36°43' E 014°50'0 0.0
2017-Sep-13 07:16N 36°43' E 014°50'0 0.0
2017-Sep-13 06:52N 36°43' E 014°50'0 0.1
2017-Sep-13 06:28N 36°43' E 014°50'0 0.1
2017-Sep-13 05:48N 36°43' E 014°50'0 0.0
2017-Sep-13 05:30N 36°43' E 014°50'0 0.0
2017-Sep-13 05:00N 36°43' E 014°50'0 0.0
2017-Sep-13 04:21N 36°43' E 014°50'0 0.0
2017-Sep-13 03:54N 36°43' E 014°50'0 0.0
2017-Sep-12 23:09N 36°43' E 014°50'2 0.0
2017-Sep-10 23:45N 36°41' E 014°52'0 0.0
2017-Sep-10 23:30N 36°41' E 014°52'0 0.0
2017-Sep-10 23:00N 36°41' E 014°52'0 0.0
2017-Sep-10 22:30N 36°41' E 014°52'0 0.0
2017-Sep-10 21:57N 36°41' E 014°52'0 0.0
2017-Sep-10 21:30N 36°41' E 014°52'0 0.0
2017-Sep-10 21:00N 36°41' E 014°52'0 0.0
2017-Sep-10 20:27N 36°41' E 014°52'0 0.0
2017-Sep-10 20:00N 36°41' E 014°52'0 0.1
2017-Sep-10 19:30N 36°41' E 014°52'0 0.0
2017-Sep-10 19:00N 36°41' E 014°52'0 0.0
2017-Sep-10 18:30N 36°41' E 014°52'0 0.0
2017-Sep-10 18:00N 36°41' E 014°52'0 0.0
2017-Sep-10 17:30N 36°41' E 014°52'0 0.0
2017-Sep-10 16:57N 36°41' E 014°52'0 0.0
2017-Sep-10 16:30N 36°41' E 014°52'0 0.0
2017-Sep-10 15:36N 36°41' E 014°52'  

Dump ship's entire track history